Terminal Aerodrome Forecast
Issued by NWS Shreveport, LA

Home | Current Version | Previous Version | Text Only | Print | Product List | Glossary On
Versions: 1 2 3 4 5 6 7 8 9 10 11 12 13 14 15 16 17 18 19 20 21
032
FTUS44 KSHV 232248 AAA
TAFMLU
TAF AMD
KMLU 232248Z 2323/2418 VRB03KT P6SM VCTS SCT060CB
      TEMPO 2323/2401 -TSRA
     FM240400 VRB03KT P6SM SCT050 BKN250
     FM241200 VRB04KT P6SM BKN040=

USA.gov is the U.S. government's official web portal to all federal, state and local government web resources and services.